createdAt,value
2019-06-20T00:00:48.415Z,101232.97
2019-06-20T00:03:54.852Z,101237.12
2019-06-20T00:07:01.217Z,101228.59
2019-06-20T00:10:07.995Z,101229.55
2019-06-20T00:13:14.392Z,101234.52
2019-06-20T00:16:21.008Z,101234.52
2019-06-20T00:19:27.473Z,101217.43
2019-06-20T00:22:33.840Z,101217.43
2019-06-20T00:25:41.354Z,101236.34
2019-06-20T00:28:47.773Z,101234.89
2019-06-20T00:31:54.305Z,101234.17
2019-06-20T00:35:00.941Z,101230.67
2019-06-20T00:38:07.351Z,101236.87
2019-06-20T00:41:13.791Z,101231.88
2019-06-20T00:44:20.160Z,101239.02
2019-06-20T00:47:26.695Z,101226.41
2019-06-20T00:50:33.101Z,101227.22
2019-06-20T00:53:39.763Z,101231.20
2019-06-20T00:56:46.272Z,101226.86
2019-06-20T00:59:52.631Z,101221.27
2019-06-20T01:02:59.051Z,101217.14
2019-06-20T01:06:05.597Z,101208.83
2019-06-20T01:09:12.054Z,101215.99
2019-06-20T01:12:18.845Z,101205.19
2019-06-20T01:15:25.224Z,101201.86
2019-06-20T01:18:31.572Z,101198.12
2019-06-20T01:21:37.945Z,101203.56
2019-06-20T01:24:44.412Z,101192.35
2019-06-20T01:27:50.681Z,101194.84
2019-06-20T01:30:57.105Z,101190.51
2019-06-20T01:34:03.712Z,101190.97
2019-06-20T01:37:10.126Z,101188.38
2019-06-20T01:40:16.522Z,101182.86
2019-06-20T01:43:22.969Z,101178.42
2019-06-20T01:46:29.537Z,101185.54
2019-06-20T01:49:35.974Z,101182.09
2019-06-20T01:52:42.434Z,101176.08
2019-06-20T01:55:49.022Z,101184.59
2019-06-20T01:58:55.566Z,101186.80
2019-06-20T02:02:02.176Z,101193.20
2019-06-20T02:05:08.694Z,101195.77
2019-06-20T02:08:16.529Z,101194.66
2019-06-20T02:11:23.015Z,101198.52
2019-06-20T02:14:29.696Z,101208.33
2019-06-20T02:17:36.119Z,101209.52
2019-06-20T02:20:49.490Z,101196.48
2019-06-20T02:23:55.890Z,101193.39
2019-06-20T02:27:02.429Z,101203.17
2019-06-20T02:30:09.015Z,101195.98
2019-06-20T02:33:15.454Z,101194.60
2019-06-20T02:36:21.941Z,101180.66
2019-06-20T02:39:28.408Z,101180.66
2019-06-20T02:42:34.815Z,101191.08
2019-06-20T02:45:41.405Z,101191.05
2019-06-20T02:48:47.886Z,101187.13
2019-06-20T02:51:54.671Z,101186.14
2019-06-20T02:55:01.018Z,101173.58
2019-06-20T02:58:07.718Z,101173.58
2019-06-20T03:01:14.364Z,101184.19
2019-06-20T03:04:21.079Z,101180.22
2019-06-20T03:07:27.508Z,101181.45
2019-06-20T03:10:33.996Z,101171.18
2019-06-20T03:13:40.415Z,101173.41
2019-06-20T03:16:47.298Z,101176.27
2019-06-20T03:19:53.638Z,101168.38
2019-06-20T03:23:00.314Z,101157.62
2019-06-20T03:26:06.695Z,101153.22
2019-06-20T03:29:13.118Z,101153.07
2019-06-20T03:32:19.543Z,101152.37
2019-06-20T03:35:25.982Z,101155.78
2019-06-20T03:38:32.369Z,101146.77
2019-06-20T03:41:39.456Z,101150.41
2019-06-20T03:44:58.402Z,101151.55
2019-06-20T03:47:54.110Z,101151.15
2019-06-20T03:51:00.570Z,101145.19
2019-06-20T03:54:07.014Z,101147.17
2019-06-20T03:57:13.359Z,101144.81
2019-06-20T04:00:23.665Z,101144.54
2019-06-20T04:03:30.175Z,101139.42
2019-06-20T04:06:36.621Z,101144.43
2019-06-20T04:09:43.043Z,101147.30
2019-06-20T04:12:49.530Z,101136.83
2019-06-20T04:15:56.072Z,101131.66
2019-06-20T04:19:04.026Z,101126.22
2019-06-20T04:22:10.378Z,101124.92
2019-06-20T04:25:16.823Z,101121.13
2019-06-20T04:28:24.366Z,101118.98
2019-06-20T04:31:30.784Z,101125.12
2019-06-20T04:34:37.281Z,101124.87
2019-06-20T04:37:44.025Z,101115.31
2019-06-20T04:40:50.418Z,101099.86
2019-06-20T04:43:56.781Z,101105.98
2019-06-20T04:47:10.182Z,101109.36
2019-06-20T04:50:16.609Z,101103.60
2019-06-20T04:53:23.103Z,101104.73
2019-06-20T04:56:29.577Z,101093.46
2019-06-20T04:59:35.999Z,101086.60
2019-06-20T05:02:42.567Z,101090.23
2019-06-20T05:05:49.210Z,101076.99
2019-06-20T05:08:55.818Z,101075.94
2019-06-20T05:12:02.176Z,101073.45
2019-06-20T05:15:08.761Z,101068.81
2019-06-20T05:18:15.377Z,101066.36
2019-06-20T05:21:22.510Z,101052.31
2019-06-20T05:24:29.012Z,101056.22
2019-06-20T05:27:35.396Z,101065.63
2019-06-20T05:30:41.932Z,101069.29
2019-06-20T05:33:48.389Z,101065.17
2019-06-20T05:36:56.570Z,101038.31
2019-06-20T05:40:03.092Z,101056.08
2019-06-20T05:43:09.555Z,101051.67
2019-06-20T05:46:16.077Z,101048.06
2019-06-20T05:49:22.630Z,101046.42
2019-06-20T05:52:29.121Z,101035.09
2019-06-20T05:55:35.708Z,101037.33
2019-06-20T05:58:42.255Z,101022.67
2019-06-20T06:01:48.592Z,101023.22
2019-06-20T06:04:55.241Z,101015.48
2019-06-20T06:08:01.781Z,101017.12
2019-06-20T06:11:08.437Z,101009.34
2019-06-20T06:14:14.852Z,101003.80
2019-06-20T06:17:22.385Z,101002.39
2019-06-20T06:20:28.862Z,100997.09
2019-06-20T06:23:35.551Z,100987.35
2019-06-20T06:26:41.959Z,100985.67
2019-06-20T06:29:48.601Z,100977.02
2019-06-20T06:32:56.020Z,100981.71
2019-06-20T06:36:02.541Z,100979.19
2019-06-20T06:39:09.772Z,100988.61
2019-06-20T06:42:16.405Z,100982.88
2019-06-20T06:45:23.060Z,100978.91
2019-06-20T06:48:29.556Z,100983.38
2019-06-20T06:51:38.208Z,100983.38
2019-06-20T06:54:44.156Z,100976.41
2019-06-20T06:57:50.682Z,100972.11
2019-06-20T07:00:57.154Z,100975.19
2019-06-20T07:04:03.502Z,100974.93
2019-06-20T07:07:10.164Z,100969.34
2019-06-20T07:10:16.992Z,100946.30
2019-06-20T07:13:23.369Z,100968.87
2019-06-20T07:16:30.097Z,100958.16
2019-06-20T07:19:36.643Z,100944.73
2019-06-20T07:22:43.183Z,100961.62
2019-06-20T07:25:50.380Z,100945.44
2019-06-20T07:28:56.718Z,100937.03
2019-06-20T07:32:04.681Z,100950.24
2019-06-20T07:35:11.379Z,100934.33
2019-06-20T07:38:17.727Z,100926.31
2019-06-20T07:41:24.196Z,100921.83
2019-06-20T07:44:30.643Z,100921.92
2019-06-20T07:47:37.198Z,100918.36
2019-06-20T07:50:43.741Z,100920.23
2019-06-20T07:53:52.634Z,100914.83
2019-06-20T07:56:59.081Z,100920.65
2019-06-20T08:00:06.849Z,100914.16
2019-06-20T08:03:13.337Z,100885.92
2019-06-20T08:06:19.775Z,100917.20
2019-06-20T08:09:43.876Z,100913.03
2019-06-20T08:12:35.795Z,100915.94
2019-06-20T08:15:42.307Z,100909.34
2019-06-20T08:18:48.755Z,100923.91
2019-06-20T08:21:55.250Z,100915.20
2019-06-20T08:25:01.638Z,100909.52
2019-06-20T08:28:08.478Z,100917.73
2019-06-20T08:31:14.935Z,100904.20
2019-06-20T08:34:21.397Z,100899.03
2019-06-20T08:37:28.271Z,100903.70
2019-06-20T08:40:40.049Z,100903.70
2019-06-20T08:43:46.639Z,100903.94
2019-06-20T08:46:53.101Z,100903.94
2019-06-20T08:49:59.846Z,100909.34
2019-06-20T08:53:07.518Z,100913.30
2019-06-20T08:56:14.061Z,100910.14
2019-06-20T08:59:24.824Z,100914.94
2019-06-20T09:02:29.325Z,100916.23
2019-06-20T09:05:37.330Z,100903.28
2019-06-20T09:08:45.204Z,100906.97
2019-06-20T09:11:54.087Z,100908.84
2019-06-20T09:15:03.292Z,100908.84
2019-06-20T09:18:12.520Z,100913.81
2019-06-20T09:21:20.349Z,100905.93
2019-06-20T09:24:28.539Z,100903.53
2019-06-20T09:27:36.611Z,100903.38
2019-06-20T09:30:44.830Z,100892.23
2019-06-20T09:33:53.809Z,100896.50
2019-06-20T09:37:01.749Z,100878.25
2019-06-20T09:40:10.032Z,100878.25
2019-06-20T09:43:27.107Z,100891.09
2019-06-20T09:46:27.585Z,100883.41
2019-06-20T09:49:35.745Z,100886.89
2019-06-20T09:52:43.829Z,100890.34
2019-06-20T09:55:51.964Z,100891.58
2019-06-20T09:58:59.884Z,100885.67
2019-06-20T10:02:07.768Z,100888.14
2019-06-20T10:05:17.923Z,100878.90
2019-06-20T10:08:25.857Z,100883.55
2019-06-20T10:11:33.653Z,100890.41
2019-06-20T10:14:42.126Z,100874.00
2019-06-20T10:17:50.110Z,100873.61
2019-06-20T10:20:57.896Z,100881.41
2019-06-20T10:24:05.830Z,100874.73
2019-06-20T10:27:13.750Z,100869.06
2019-06-20T10:30:22.142Z,100868.80
2019-06-20T10:33:30.420Z,100868.61
2019-06-20T10:36:38.330Z,100862.95
2019-06-20T10:39:46.292Z,100857.90
2019-06-20T10:42:54.395Z,100860.78
2019-06-20T10:46:19.088Z,100854.99
2019-06-20T10:49:25.543Z,100855.58
2019-06-20T10:52:32.885Z,100844.24
2019-06-20T10:55:41.461Z,100844.16
2019-06-20T10:58:48.443Z,100847.13
2019-06-20T11:01:54.790Z,100844.98
2019-06-20T11:05:01.772Z,100838.72
2019-06-20T11:08:08.390Z,100832.59
2019-06-20T11:11:14.845Z,100837.06
2019-06-20T11:14:21.292Z,100829.96
2019-06-20T11:17:27.882Z,100826.65
2019-06-20T11:20:34.483Z,100833.59
2019-06-20T11:23:41.319Z,100823.76
2019-06-20T11:26:48.012Z,100823.76
2019-06-20T11:29:54.428Z,100820.30
2019-06-20T11:33:00.934Z,100807.34
2019-06-20T11:36:07.945Z,100812.02
2019-06-20T11:39:14.284Z,100805.37
2019-06-20T11:42:20.737Z,100797.61
2019-06-20T11:45:27.338Z,100796.11
2019-06-20T11:48:35.184Z,100788.98
2019-06-20T11:51:41.937Z,100788.98
2019-06-20T11:54:48.415Z,100789.22
2019-06-20T11:57:54.884Z,100795.56
2019-06-20T12:01:04.149Z,100794.00
2019-06-20T12:04:10.753Z,100792.59
2019-06-20T12:07:17.295Z,100794.45
2019-06-20T12:10:24.227Z,100790.45
2019-06-20T12:13:30.669Z,100798.91
2019-06-20T12:16:39.160Z,100790.30
2019-06-20T12:19:46.765Z,100779.21
2019-06-20T12:22:53.240Z,100775.04
2019-06-20T12:25:59.710Z,100780.05
2019-06-20T12:29:06.194Z,100774.09
2019-06-20T12:32:12.667Z,100784.96
2019-06-20T12:35:19.254Z,100772.49
2019-06-20T12:38:25.777Z,100772.30
2019-06-20T12:41:33.182Z,100767.43
2019-06-20T12:44:40.078Z,100774.21
2019-06-20T12:47:46.756Z,100753.03
2019-06-20T12:50:53.168Z,100759.70
2019-06-20T12:53:59.566Z,100757.98
2019-06-20T12:57:06.400Z,100761.95
2019-06-20T13:00:14.360Z,100766.16
2019-06-20T13:03:20.729Z,100767.28
2019-06-20T13:06:27.959Z,100774.92
2019-06-20T13:09:34.427Z,100774.36
2019-06-20T13:12:42.692Z,100772.75
2019-06-20T13:15:49.443Z,100780.38
2019-06-20T13:18:55.874Z,100770.55
2019-06-20T13:22:02.538Z,100770.55
2019-06-20T13:25:09.387Z,100779.59
2019-06-20T13:28:15.863Z,100781.20
2019-06-20T13:31:22.315Z,100786.91
2019-06-20T13:34:28.802Z,100793.66
2019-06-20T13:37:35.355Z,100790.03
2019-06-20T13:41:08.510Z,100788.00
2019-06-20T13:44:17.621Z,100788.00
2019-06-20T13:47:24.147Z,100781.78
2019-06-20T13:50:30.681Z,100793.37
2019-06-20T13:53:39.089Z,100793.71
2019-06-20T13:56:45.603Z,100792.92
2019-06-20T13:59:52.911Z,100787.70
2019-06-20T14:03:02.642Z,100785.30
2019-06-20T14:06:09.099Z,100772.86
2019-06-20T14:09:15.727Z,100768.63
2019-06-20T14:12:22.293Z,100757.86
2019-06-20T14:15:28.775Z,100748.98
2019-06-20T14:18:36.660Z,100743.66
2019-06-20T14:21:47.222Z,100734.28
2019-06-20T14:24:53.843Z,100722.93
2019-06-20T14:28:00.410Z,100729.02
2019-06-20T14:31:06.907Z,100710.63
2019-06-20T14:34:13.579Z,100709.59
2019-06-20T14:37:22.816Z,100704.78
2019-06-20T14:40:29.347Z,100694.24
2019-06-20T14:43:37.703Z,100697.44
2019-06-20T14:46:44.187Z,100675.73
2019-06-20T14:49:53.717Z,100691.09
2019-06-20T14:53:00.825Z,100686.90
2019-06-20T14:56:07.419Z,100679.97
2019-06-20T14:59:13.857Z,100686.80
2019-06-20T15:02:37.203Z,100685.73
2019-06-20T15:05:34.081Z,100684.47
2019-06-20T15:08:39.034Z,100683.97
2019-06-20T15:11:46.505Z,100694.37
2019-06-20T15:14:53.508Z,100690.75
2019-06-20T15:17:59.937Z,100686.82
2019-06-20T15:21:06.427Z,100679.02
2019-06-20T15:24:12.863Z,100677.36
2019-06-20T15:27:19.549Z,100677.36
2019-06-20T15:30:26.031Z,100673.94
2019-06-20T15:33:32.508Z,100666.77
2019-06-20T15:36:38.951Z,100663.02
2019-06-20T15:39:46.685Z,100653.87
2019-06-20T15:42:55.337Z,100651.39
2019-06-20T15:46:02.005Z,100656.88
2019-06-20T15:49:16.170Z,100662.11
2019-06-20T15:52:16.575Z,100657.27
2019-06-20T15:55:23.555Z,100652.72
2019-06-20T15:58:30.456Z,100642.05
2019-06-20T16:01:36.881Z,100638.72
2019-06-20T16:04:43.330Z,100643.16
2019-06-20T16:07:49.922Z,100648.39
2019-06-20T16:10:56.278Z,100651.53
2019-06-20T16:14:03.390Z,100653.08
2019-06-20T16:17:10.149Z,100649.23
2019-06-20T16:20:18.416Z,100653.44
2019-06-20T16:23:24.899Z,100651.38
2019-06-20T16:26:31.280Z,100648.05
2019-06-20T16:29:37.964Z,100650.84
2019-06-20T16:32:44.459Z,100647.53
2019-06-20T16:35:51.095Z,100633.19
2019-06-20T16:38:57.531Z,100634.64
2019-06-20T16:42:05.097Z,100624.30
2019-06-20T16:45:12.102Z,100627.64
2019-06-20T16:48:19.135Z,100634.73
2019-06-20T16:51:25.576Z,100631.62
2019-06-20T16:54:32.565Z,100636.45
2019-06-20T16:57:39.312Z,100643.45
2019-06-20T17:00:45.776Z,100621.23
2019-06-20T17:03:52.112Z,100632.21
2019-06-20T17:06:58.636Z,100631.04
2019-06-20T17:10:06.544Z,100636.41
2019-06-20T17:13:13.235Z,100630.13
2019-06-20T17:16:19.664Z,100638.86
2019-06-20T17:19:26.163Z,100647.91
2019-06-20T17:22:32.667Z,100643.92
2019-06-20T17:25:39.236Z,100655.39
2019-06-20T17:28:45.706Z,100655.39
2019-06-20T17:31:52.434Z,100664.48
2019-06-20T17:34:58.924Z,100648.28
2019-06-20T17:38:05.567Z,100674.14
2019-06-20T17:41:11.998Z,100674.14
2019-06-20T17:44:19.639Z,100665.91
2019-06-20T17:47:26.486Z,100662.33
2019-06-20T17:52:16.195Z,100654.94
2019-06-20T17:53:49.632Z,100662.16
2019-06-20T17:56:55.245Z,100671.00
2019-06-20T18:00:02.721Z,100678.45
2019-06-20T18:03:09.241Z,100673.15
2019-06-20T18:06:15.761Z,100686.96
2019-06-20T18:09:22.407Z,100703.69
2019-06-20T18:12:28.935Z,100709.94
2019-06-20T18:15:35.393Z,100705.30
2019-06-20T18:18:41.809Z,100722.23
2019-06-20T18:21:48.174Z,100727.95
2019-06-20T18:24:54.668Z,100740.28
2019-06-20T18:28:01.143Z,100740.23
2019-06-20T18:31:07.595Z,100735.36
2019-06-20T18:34:29.223Z,100735.36
2019-06-20T18:37:31.445Z,100745.05
2019-06-20T18:40:30.580Z,100730.80
2019-06-20T18:43:36.921Z,100744.18
2019-06-20T18:46:43.712Z,100751.01
2019-06-20T18:49:50.242Z,100740.33
2019-06-20T18:52:57.089Z,100741.80
2019-06-20T18:56:03.520Z,100748.85
2019-06-20T18:59:11.047Z,100739.16
2019-06-20T19:02:20.329Z,100747.17
2019-06-20T19:05:26.858Z,100759.73
2019-06-20T19:08:33.372Z,100760.26
2019-06-20T19:11:39.797Z,100766.54
2019-06-20T19:14:47.822Z,100760.34
2019-06-20T19:17:54.312Z,100755.91
2019-06-20T19:21:00.711Z,100740.64
2019-06-20T19:24:08.173Z,100747.05
2019-06-20T19:27:14.683Z,100758.98
2019-06-20T19:30:26.099Z,100754.73
2019-06-20T19:33:32.645Z,100760.50
2019-06-20T19:36:40.138Z,100751.30
2019-06-20T19:39:46.739Z,100751.80
2019-06-20T19:42:53.470Z,100757.05
2019-06-20T19:45:59.872Z,100766.28
2019-06-20T19:49:06.662Z,100781.12
2019-06-20T19:52:13.328Z,100776.66
2019-06-20T19:55:19.934Z,100783.52
2019-06-20T19:58:26.428Z,100788.16
2019-06-20T20:01:34.117Z,100785.88
2019-06-20T20:04:40.581Z,100784.44
2019-06-20T20:07:47.093Z,100782.84
2019-06-20T20:10:53.786Z,100774.52
2019-06-20T20:14:00.267Z,100767.95
2019-06-20T20:17:06.748Z,100767.44
2019-06-20T20:20:13.953Z,100775.63
2019-06-20T20:23:20.539Z,100779.52
2019-06-20T20:26:27.063Z,100792.69
2019-06-20T20:29:36.773Z,100786.30
2019-06-20T20:32:43.301Z,100788.77
2019-06-20T20:35:49.840Z,100787.80
2019-06-20T20:38:57.748Z,100790.03
2019-06-20T20:42:05.476Z,100792.31
2019-06-20T20:45:12.222Z,100803.63
2019-06-20T20:48:18.646Z,100816.52
2019-06-20T20:51:25.111Z,100808.71
2019-06-20T20:54:31.609Z,100804.17
2019-06-20T20:57:41.549Z,100808.52
2019-06-20T21:01:01.841Z,100802.06
2019-06-20T21:04:08.240Z,100825.92
2019-06-20T21:07:14.743Z,100824.53
2019-06-20T21:10:21.445Z,100824.53
2019-06-20T21:13:27.901Z,100821.25
2019-06-20T21:16:34.329Z,100825.39
2019-06-20T21:19:40.764Z,100833.50
2019-06-20T21:22:47.376Z,100833.50
2019-06-20T21:25:53.844Z,100856.25
2019-06-20T21:29:00.406Z,100855.77
2019-06-20T21:32:06.876Z,100851.59
2019-06-20T21:35:13.491Z,100850.50
2019-06-20T21:38:22.043Z,100859.17
2019-06-20T21:41:28.632Z,100851.98
2019-06-20T21:44:35.167Z,100846.70
2019-06-20T21:47:41.747Z,100843.37
2019-06-20T21:50:48.193Z,100849.50
2019-06-20T21:53:54.579Z,100846.46
2019-06-20T21:57:01.593Z,100831.48
2019-06-20T22:00:12.366Z,100828.44
2019-06-20T22:03:20.192Z,100839.00
2019-06-20T22:06:27.040Z,100845.89
2019-06-20T22:09:33.531Z,100855.89
2019-06-20T22:12:40.093Z,100855.89
2019-06-20T22:15:46.635Z,100865.30
2019-06-20T22:18:53.247Z,100865.31
2019-06-20T22:21:59.917Z,100865.85
2019-06-20T22:25:06.686Z,100853.68
2019-06-20T22:28:14.116Z,100852.56
2019-06-20T22:31:20.984Z,100852.27
2019-06-20T22:34:27.444Z,100851.43
2019-06-20T22:37:34.028Z,100853.95
2019-06-20T22:40:40.490Z,100848.98
2019-06-20T22:43:47.417Z,100861.43
2019-06-20T22:46:53.909Z,100882.92
2019-06-20T22:50:00.439Z,100878.13
2019-06-20T22:53:06.909Z,100876.92
2019-06-20T22:56:13.449Z,100863.84
2019-06-20T22:59:19.953Z,100876.64
2019-06-20T23:02:26.725Z,100870.28
2019-06-20T23:05:33.172Z,100880.08
2019-06-20T23:08:39.633Z,100872.44
2019-06-20T23:11:46.152Z,100878.47
2019-06-20T23:14:52.732Z,100891.33
2019-06-20T23:17:59.190Z,100886.62
2019-06-20T23:21:05.760Z,100880.78
2019-06-20T23:24:12.240Z,100894.56
2019-06-20T23:27:18.658Z,100888.69
2019-06-20T23:30:25.189Z,100879.53
2019-06-20T23:33:31.658Z,100876.34
2019-06-20T23:36:38.251Z,100887.33
2019-06-20T23:39:44.746Z,100889.72
2019-06-20T23:42:51.337Z,100900.62
2019-06-20T23:45:58.175Z,100905.00
2019-06-20T23:49:04.670Z,100917.02
2019-06-20T23:52:15.698Z,100918.13
2019-06-20T23:55:22.151Z,100920.55
2019-06-20T23:58:28.613Z,100915.79
